<?xml version="1.0" encoding="UTF-8" standalone="no" ?>
<gpx xmlns="http://www.topografix.com/GPX/1/1" xmlns:xsi="http://www.w3.org/2001/XMLSchema-instance" xsi:schemaLocation="http://www.topografix.com/GPX/1/1 http://www.topografix.com/GPX/1/1/gpx.xsd" version="1.1" creator="VisuGPX - https://www.visugpx.com">
  <metadata>
    <name>ST CLEMENT (03250)LE COINDRE</name>
    <desc><![CDATA[Circuit non balisé à faire avec la carte en main ou GPS.]]></desc>
  </metadata>
  <trk>
    <name><![CDATA[14136191-ST CLEMENT LE COINDRE]]></name>
    <trkseg>
      <trkpt lat="46.07713" lon="3.70156">
        <ele>510</ele>
        <time>2022-01-16T17:07:48Z</time>
      </trkpt>
      <trkpt lat="46.07674" lon="3.70289">
        <ele>515</ele>
        <time>2022-01-16T17:10:02Z</time>
      </trkpt>
      <trkpt lat="46.07687" lon="3.70358">
        <ele>521</ele>
        <time>2022-01-16T17:11:08Z</time>
      </trkpt>
      <trkpt lat="46.0774" lon="3.70413">
        <ele>531</ele>
        <time>2022-01-16T17:12:35Z</time>
      </trkpt>
      <trkpt lat="46.07853" lon="3.70374">
        <ele>542</ele>
        <time>2022-01-16T17:15:10Z</time>
      </trkpt>
      <trkpt lat="46.0802" lon="3.70473">
        <ele>573</ele>
        <time>2022-01-16T17:19:11Z</time>
      </trkpt>
      <trkpt lat="46.08103" lon="3.70425">
        <ele>574</ele>
        <time>2022-01-16T17:21:10Z</time>
      </trkpt>
      <trkpt lat="46.08192" lon="3.70469">
        <ele>586</ele>
        <time>2022-01-16T17:23:16Z</time>
      </trkpt>
      <trkpt lat="46.08217" lon="3.70556">
        <ele>590</ele>
        <time>2022-01-16T17:24:43Z</time>
      </trkpt>
      <trkpt lat="46.08183" lon="3.70632">
        <ele>595</ele>
        <time>2022-01-16T17:26:07Z</time>
      </trkpt>
      <trkpt lat="46.08317" lon="3.70821">
        <ele>602</ele>
        <time>2022-01-16T17:30:17Z</time>
      </trkpt>
      <trkpt lat="46.08326" lon="3.70873">
        <ele>603</ele>
        <time>2022-01-16T17:31:07Z</time>
      </trkpt>
      <trkpt lat="46.08413" lon="3.71001">
        <ele>609</ele>
        <time>2022-01-16T17:33:52Z</time>
      </trkpt>
      <trkpt lat="46.08499" lon="3.71042">
        <ele>612</ele>
        <time>2022-01-16T17:35:53Z</time>
      </trkpt>
      <trkpt lat="46.08517" lon="3.71083">
        <ele>616</ele>
        <time>2022-01-16T17:36:38Z</time>
      </trkpt>
      <trkpt lat="46.08558" lon="3.71167">
        <ele>623</ele>
        <time>2022-01-16T17:38:13Z</time>
      </trkpt>
      <trkpt lat="46.08643" lon="3.71256">
        <ele>619</ele>
        <time>2022-01-16T17:40:33Z</time>
      </trkpt>
      <trkpt lat="46.0873" lon="3.71236">
        <ele>623</ele>
        <time>2022-01-16T17:42:31Z</time>
      </trkpt>
      <trkpt lat="46.08808" lon="3.71239">
        <ele>621</ele>
        <time>2022-01-16T17:44:15Z</time>
      </trkpt>
      <trkpt lat="46.08854" lon="3.71218">
        <ele>632</ele>
        <time>2022-01-16T17:45:20Z</time>
      </trkpt>
      <trkpt lat="46.08876" lon="3.71278">
        <ele>630</ele>
        <time>2022-01-16T17:46:22Z</time>
      </trkpt>
      <trkpt lat="46.08848" lon="3.71417">
        <ele>620</ele>
        <time>2022-01-16T17:48:36Z</time>
      </trkpt>
      <trkpt lat="46.08898" lon="3.71542">
        <ele>625</ele>
        <time>2022-01-16T17:50:50Z</time>
      </trkpt>
      <trkpt lat="46.08958" lon="3.71567">
        <ele>631</ele>
        <time>2022-01-16T17:52:13Z</time>
      </trkpt>
      <trkpt lat="46.0907" lon="3.71603">
        <ele>629</ele>
        <time>2022-01-16T17:54:46Z</time>
      </trkpt>
      <trkpt lat="46.09043" lon="3.71708">
        <ele>627</ele>
        <time>2022-01-16T17:56:30Z</time>
      </trkpt>
      <trkpt lat="46.09031" lon="3.71857">
        <ele>630</ele>
        <time>2022-01-16T17:58:49Z</time>
      </trkpt>
      <trkpt lat="46.09047" lon="3.71868">
        <ele>632</ele>
        <time>2022-01-16T17:59:12Z</time>
      </trkpt>
      <trkpt lat="46.08993" lon="3.71992">
        <ele>620</ele>
        <time>2022-01-16T18:01:28Z</time>
      </trkpt>
      <trkpt lat="46.08922" lon="3.72117">
        <ele>621</ele>
        <time>2022-01-16T18:03:58Z</time>
      </trkpt>
      <trkpt lat="46.08883" lon="3.7234">
        <ele>638</ele>
        <time>2022-01-16T18:07:30Z</time>
      </trkpt>
      <trkpt lat="46.08826" lon="3.72422">
        <ele>632</ele>
        <time>2022-01-16T18:09:18Z</time>
      </trkpt>
      <trkpt lat="46.08698" lon="3.72546">
        <ele>637</ele>
        <time>2022-01-16T18:12:44Z</time>
      </trkpt>
      <trkpt lat="46.08648" lon="3.72563">
        <ele>631</ele>
        <time>2022-01-16T18:13:52Z</time>
      </trkpt>
      <trkpt lat="46.08622" lon="3.72634">
        <ele>635</ele>
        <time>2022-01-16T18:15:06Z</time>
      </trkpt>
      <trkpt lat="46.08669" lon="3.72726">
        <ele>645</ele>
        <time>2022-01-16T18:16:52Z</time>
      </trkpt>
      <trkpt lat="46.08665" lon="3.72767">
        <ele>649</ele>
        <time>2022-01-16T18:17:31Z</time>
      </trkpt>
      <trkpt lat="46.08537" lon="3.72749">
        <ele>647</ele>
        <time>2022-01-16T18:20:22Z</time>
      </trkpt>
      <trkpt lat="46.08472" lon="3.72795">
        <ele>649</ele>
        <time>2022-01-16T18:21:59Z</time>
      </trkpt>
      <trkpt lat="46.0835" lon="3.72903">
        <ele>653</ele>
        <time>2022-01-16T18:25:10Z</time>
      </trkpt>
      <trkpt lat="46.08283" lon="3.72892">
        <ele>639</ele>
        <time>2022-01-16T18:26:40Z</time>
      </trkpt>
      <trkpt lat="46.08237" lon="3.73001">
        <ele>648</ele>
        <time>2022-01-16T18:28:38Z</time>
      </trkpt>
      <trkpt lat="46.08142" lon="3.73121">
        <ele>643</ele>
        <time>2022-01-16T18:31:26Z</time>
      </trkpt>
      <trkpt lat="46.0813" lon="3.73357">
        <ele>662</ele>
        <time>2022-01-16T18:35:06Z</time>
      </trkpt>
      <trkpt lat="46.08076" lon="3.73449">
        <ele>658</ele>
        <time>2022-01-16T18:36:57Z</time>
      </trkpt>
      <trkpt lat="46.08067" lon="3.7361">
        <ele>662</ele>
        <time>2022-01-16T18:39:27Z</time>
      </trkpt>
      <trkpt lat="46.08051" lon="3.7371">
        <ele>667</ele>
        <time>2022-01-16T18:41:02Z</time>
      </trkpt>
      <trkpt lat="46.08102" lon="3.73813">
        <ele>672</ele>
        <time>2022-01-16T18:42:59Z</time>
      </trkpt>
      <trkpt lat="46.08076" lon="3.73928">
        <ele>671</ele>
        <time>2022-01-16T18:44:51Z</time>
      </trkpt>
      <trkpt lat="46.08026" lon="3.73946">
        <ele>668</ele>
        <time>2022-01-16T18:45:59Z</time>
      </trkpt>
      <trkpt lat="46.07981" lon="3.74065">
        <ele>677</ele>
        <time>2022-01-16T18:48:05Z</time>
      </trkpt>
      <trkpt lat="46.07939" lon="3.74111">
        <ele>672</ele>
        <time>2022-01-16T18:49:15Z</time>
      </trkpt>
      <trkpt lat="46.07924" lon="3.74027">
        <ele>669</ele>
        <time>2022-01-16T18:50:36Z</time>
      </trkpt>
      <trkpt lat="46.07898" lon="3.73958">
        <ele>677</ele>
        <time>2022-01-16T18:51:48Z</time>
      </trkpt>
      <trkpt lat="46.07924" lon="3.73881">
        <ele>681</ele>
        <time>2022-01-16T18:53:08Z</time>
      </trkpt>
      <trkpt lat="46.07984" lon="3.73803">
        <ele>673</ele>
        <time>2022-01-16T18:54:55Z</time>
      </trkpt>
      <trkpt lat="46.07992" lon="3.73627">
        <ele>678</ele>
        <time>2022-01-16T18:57:39Z</time>
      </trkpt>
      <trkpt lat="46.07951" lon="3.73417">
        <ele>698</ele>
        <time>2022-01-16T19:01:01Z</time>
      </trkpt>
      <trkpt lat="46.07822" lon="3.73134">
        <ele>715</ele>
        <time>2022-01-16T19:06:14Z</time>
      </trkpt>
      <trkpt lat="46.07839" lon="3.73026">
        <ele>712</ele>
        <time>2022-01-16T19:07:57Z</time>
      </trkpt>
      <trkpt lat="46.07868" lon="3.72713">
        <ele>734</ele>
        <time>2022-01-16T19:12:49Z</time>
      </trkpt>
      <trkpt lat="46.07898" lon="3.72593">
        <ele>728</ele>
        <time>2022-01-16T19:14:47Z</time>
      </trkpt>
      <trkpt lat="46.07954" lon="3.72456">
        <ele>709</ele>
        <time>2022-01-16T19:17:14Z</time>
      </trkpt>
      <trkpt lat="46.07978" lon="3.7234">
        <ele>703</ele>
        <time>2022-01-16T19:19:06Z</time>
      </trkpt>
      <trkpt lat="46.07793" lon="3.72366">
        <ele>697</ele>
        <time>2022-01-16T19:23:14Z</time>
      </trkpt>
      <trkpt lat="46.0754" lon="3.7249">
        <ele>691</ele>
        <time>2022-01-16T19:29:11Z</time>
      </trkpt>
      <trkpt lat="46.07449" lon="3.72545">
        <ele>693</ele>
        <time>2022-01-16T19:31:22Z</time>
      </trkpt>
      <trkpt lat="46.07371" lon="3.72542">
        <ele>690</ele>
        <time>2022-01-16T19:33:07Z</time>
      </trkpt>
      <trkpt lat="46.07344" lon="3.72501">
        <ele>679</ele>
        <time>2022-01-16T19:33:59Z</time>
      </trkpt>
      <trkpt lat="46.07281" lon="3.72546">
        <ele>698</ele>
        <time>2022-01-16T19:35:33Z</time>
      </trkpt>
      <trkpt lat="46.07264" lon="3.72536">
        <ele>698</ele>
        <time>2022-01-16T19:35:57Z</time>
      </trkpt>
      <trkpt lat="46.07261" lon="3.72336">
        <ele>685</ele>
        <time>2022-01-16T19:39:02Z</time>
      </trkpt>
      <trkpt lat="46.07357" lon="3.72166">
        <ele>691</ele>
        <time>2022-01-16T19:42:25Z</time>
      </trkpt>
      <trkpt lat="46.07431" lon="3.72088">
        <ele>692</ele>
        <time>2022-01-16T19:44:28Z</time>
      </trkpt>
      <trkpt lat="46.07502" lon="3.71992">
        <ele>692</ele>
        <time>2022-01-16T19:46:38Z</time>
      </trkpt>
      <trkpt lat="46.07546" lon="3.71842">
        <ele>679</ele>
        <time>2022-01-16T19:49:08Z</time>
      </trkpt>
      <trkpt lat="46.07582" lon="3.71804">
        <ele>667</ele>
        <time>2022-01-16T19:50:08Z</time>
      </trkpt>
      <trkpt lat="46.076" lon="3.71742">
        <ele>660</ele>
        <time>2022-01-16T19:51:10Z</time>
      </trkpt>
      <trkpt lat="46.07504" lon="3.7164">
        <ele>657</ele>
        <time>2022-01-16T19:53:49Z</time>
      </trkpt>
      <trkpt lat="46.07497" lon="3.71603">
        <ele>657</ele>
        <time>2022-01-16T19:54:25Z</time>
      </trkpt>
      <trkpt lat="46.07538" lon="3.71426">
        <ele>639</ele>
        <time>2022-01-16T19:57:18Z</time>
      </trkpt>
      <trkpt lat="46.07591" lon="3.71248">
        <ele>617</ele>
        <time>2022-01-16T20:00:17Z</time>
      </trkpt>
      <trkpt lat="46.07667" lon="3.71153">
        <ele>602</ele>
        <time>2022-01-16T20:02:31Z</time>
      </trkpt>
      <trkpt lat="46.07636" lon="3.71044">
        <ele>588</ele>
        <time>2022-01-16T20:04:20Z</time>
      </trkpt>
      <trkpt lat="46.07569" lon="3.70995">
        <ele>578</ele>
        <time>2022-01-16T20:06:00Z</time>
      </trkpt>
      <trkpt lat="46.07492" lon="3.71061">
        <ele>585</ele>
        <time>2022-01-16T20:08:00Z</time>
      </trkpt>
      <trkpt lat="46.07457" lon="3.7098">
        <ele>581</ele>
        <time>2022-01-16T20:09:28Z</time>
      </trkpt>
      <trkpt lat="46.07452" lon="3.70884">
        <ele>566</ele>
        <time>2022-01-16T20:10:57Z</time>
      </trkpt>
      <trkpt lat="46.07399" lon="3.70821">
        <ele>564</ele>
        <time>2022-01-16T20:12:29Z</time>
      </trkpt>
      <trkpt lat="46.074" lon="3.70761">
        <ele>556</ele>
        <time>2022-01-16T20:13:25Z</time>
      </trkpt>
      <trkpt lat="46.0749" lon="3.70683">
        <ele>533</ele>
        <time>2022-01-16T20:15:45Z</time>
      </trkpt>
      <trkpt lat="46.07433" lon="3.70599">
        <ele>533</ele>
        <time>2022-01-16T20:17:34Z</time>
      </trkpt>
      <trkpt lat="46.07441" lon="3.70547">
        <ele>528</ele>
        <time>2022-01-16T20:18:23Z</time>
      </trkpt>
      <trkpt lat="46.07425" lon="3.70457">
        <ele>523</ele>
        <time>2022-01-16T20:19:49Z</time>
      </trkpt>
      <trkpt lat="46.07396" lon="3.70373">
        <ele>510</ele>
        <time>2022-01-16T20:21:16Z</time>
      </trkpt>
      <trkpt lat="46.07436" lon="3.70306">
        <ele>502</ele>
        <time>2022-01-16T20:22:38Z</time>
      </trkpt>
      <trkpt lat="46.07428" lon="3.70169">
        <ele>492</ele>
        <time>2022-01-16T20:24:45Z</time>
      </trkpt>
      <trkpt lat="46.07416" lon="3.69975">
        <ele>480</ele>
        <time>2022-01-16T20:27:45Z</time>
      </trkpt>
      <trkpt lat="46.07546" lon="3.69902">
        <ele>483</ele>
        <time>2022-01-16T20:30:51Z</time>
      </trkpt>
      <trkpt lat="46.07586" lon="3.69934">
        <ele>487</ele>
        <time>2022-01-16T20:31:52Z</time>
      </trkpt>
      <trkpt lat="46.07685" lon="3.70129">
        <ele>508</ele>
        <time>2022-01-16T20:35:36Z</time>
      </trkpt>
      <trkpt lat="46.07707" lon="3.70131">
        <ele>508</ele>
        <time>2022-01-16T20:36:06Z</time>
      </trkpt>
      <trkpt lat="46.07731" lon="3.70128">
        <ele>508</ele>
        <time>2022-01-16T20:36:38Z</time>
      </trkpt>
    </trkseg>
  </trk>
</gpx>